sensor_id;sensor_type;location;lat;lon;timestamp;temperature;humidity
947;DHT22;460;48.734;9.152;2023-09-18T00:02:09;19.90;94.70
947;DHT22;460;48.734;9.152;2023-09-18T00:04:36;20.00;94.70
947;DHT22;460;48.734;9.152;2023-09-18T00:07:03;19.90;95.00
947;DHT22;460;48.734;9.152;2023-09-18T00:09:30;19.90;94.90
947;DHT22;460;48.734;9.152;2023-09-18T00:11:58;20.00;94.70
947;DHT22;460;48.734;9.152;2023-09-18T00:14:25;19.90;94.70
947;DHT22;460;48.734;9.152;2023-09-18T00:16:52;19.90;94.90
947;DHT22;460;48.734;9.152;2023-09-18T00:19:19;19.70;95.40
947;DHT22;460;48.734;9.152;2023-09-18T00:21:46;19.80;95.80
947;DHT22;460;48.734;9.152;2023-09-18T00:24:13;19.80;95.70
947;DHT22;460;48.734;9.152;2023-09-18T00:26:40;19.60;95.80
947;DHT22;460;48.734;9.152;2023-09-18T00:29:08;19.70;95.60
947;DHT22;460;48.734;9.152;2023-09-18T00:31:35;19.70;95.90
947;DHT22;460;48.734;9.152;2023-09-18T00:34:01;19.70;95.70
947;DHT22;460;48.734;9.152;2023-09-18T00:36:28;19.70;95.60
947;DHT22;460;48.734;9.152;2023-09-18T00:38:55;19.80;95.90
947;DHT22;460;48.734;9.152;2023-09-18T00:41:22;19.80;95.90
947;DHT22;460;48.734;9.152;2023-09-18T00:43:48;19.70;96.20
947;DHT22;460;48.734;9.152;2023-09-18T00:46:17;19.70;96.80
947;DHT22;460;48.734;9.152;2023-09-18T00:48:45;19.50;96.80
947;DHT22;460;48.734;9.152;2023-09-18T00:51:13;19.60;96.50
947;DHT22;460;48.734;9.152;2023-09-18T00:53:43;19.70;96.20
947;DHT22;460;48.734;9.152;2023-09-18T00:56:12;19.80;95.80
947;DHT22;460;48.734;9.152;2023-09-18T00:58:40;19.70;95.80
947;DHT22;460;48.734;9.152;2023-09-18T01:01:07;19.80;95.80
947;DHT22;460;48.734;9.152;2023-09-18T01:03:36;19.70;95.80
947;DHT22;460;48.734;9.152;2023-09-18T01:06:03;19.70;95.90
947;DHT22;460;48.734;9.152;2023-09-18T01:08:30;19.80;95.80
947;DHT22;460;48.734;9.152;2023-09-18T01:11:03;19.80;95.90
947;DHT22;460;48.734;9.152;2023-09-18T01:13:38;19.70;96.00
947;DHT22;460;48.734;9.152;2023-09-18T01:16:16;19.80;95.80
947;DHT22;460;48.734;9.152;2023-09-18T01:18:50;19.90;95.70
947;DHT22;460;48.734;9.152;2023-09-18T01:21:19;19.80;95.80
947;DHT22;460;48.734;9.152;2023-09-18T01:23:49;19.80;95.90
947;DHT22;460;48.734;9.152;2023-09-18T01:26:18;19.90;95.70
947;DHT22;460;48.734;9.152;2023-09-18T01:28:45;20.00;95.60
947;DHT22;460;48.734;9.152;2023-09-18T01:31:13;20.10;95.40
947;DHT22;460;48.734;9.152;2023-09-18T01:33:42;20.10;95.40
947;DHT22;460;48.734;9.152;2023-09-18T01:36:12;20.10;95.60
947;DHT22;460;48.734;9.152;2023-09-18T01:38:42;20.10;95.60
947;DHT22;460;48.734;9.152;2023-09-18T01:41:12;20.00;96.10
947;DHT22;460;48.734;9.152;2023-09-18T01:43:40;20.10;95.70
947;DHT22;460;48.734;9.152;2023-09-18T01:46:09;20.20;95.40
947;DHT22;460;48.734;9.152;2023-09-18T01:48:39;20.20;95.60
947;DHT22;460;48.734;9.152;2023-09-18T01:51:16;20.30;95.50
947;DHT22;460;48.734;9.152;2023-09-18T01:53:44;20.30;95.40
947;DHT22;460;48.734;9.152;2023-09-18T01:56:14;20.40;95.10
947;DHT22;460;48.734;9.152;2023-09-18T01:58:43;20.40;94.50
947;DHT22;460;48.734;9.152;2023-09-18T02:01:12;20.50;94.60
947;DHT22;460;48.734;9.152;2023-09-18T02:03:40;20.70;93.40
947;DHT22;460;48.734;9.152;2023-09-18T02:06:08;20.80;94.10
947;DHT22;460;48.734;9.152;2023-09-18T02:08:39;20.80;96.50
947;DHT22;460;48.734;9.152;2023-09-18T02:11:07;20.50;98.90
947;DHT22;460;48.734;9.152;2023-09-18T02:13:35;20.40;99.10
947;DHT22;460;48.734;9.152;2023-09-18T02:16:04;19.90;99.90
947;DHT22;460;48.734;9.152;2023-09-18T02:18:32;19.40;99.90
947;DHT22;460;48.734;9.152;2023-09-18T02:21:00;19.30;99.90
947;DHT22;460;48.734;9.152;2023-09-18T02:23:28;19.20;99.90
947;DHT22;460;48.734;9.152;2023-09-18T02:25:56;19.10;99.90
947;DHT22;460;48.734;9.152;2023-09-18T02:28:23;19.10;99.90
947;DHT22;460;48.734;9.152;2023-09-18T02:30:52;18.80;99.90
947;DHT22;460;48.734;9.152;2023-09-18T02:33:19;18.70;99.90
947;DHT22;460;48.734;9.152;2023-09-18T02:35:46;18.60;99.90
947;DHT22;460;48.734;9.152;2023-09-18T02:38:12;18.40;99.90
947;DHT22;460;48.734;9.152;2023-09-18T02:40:39;18.30;99.90
947;DHT22;460;48.734;9.152;2023-09-18T02:43:06;18.30;99.90
947;DHT22;460;48.734;9.152;2023-09-18T02:45:33;18.40;99.90
947;DHT22;460;48.734;9.152;2023-09-18T02:48:01;18.50;99.90
947;DHT22;460;48.734;9.152;2023-09-18T02:50:28;18.60;99.90
947;DHT22;460;48.734;9.152;2023-09-18T02:52:55;18.70;99.90
947;DHT22;460;48.734;9.152;2023-09-18T02:55:21;18.70;99.90
947;DHT22;460;48.734;9.152;2023-09-18T02:57:48;18.60;99.90
947;DHT22;460;48.734;9.152;2023-09-18T03:00:15;18.60;99.90
947;DHT22;460;48.734;9.152;2023-09-18T03:02:42;18.50;99.90
947;DHT22;460;48.734;9.152;2023-09-18T03:05:11;18.50;99.90
947;DHT22;460;48.734;9.152;2023-09-18T03:07:37;18.50;99.90
947;DHT22;460;48.734;9.152;2023-09-18T03:10:05;18.50;99.90
947;DHT22;460;48.734;9.152;2023-09-18T03:12:32;18.50;99.90
947;DHT22;460;48.734;9.152;2023-09-18T03:15:00;18.50;99.90
947;DHT22;460;48.734;9.152;2023-09-18T03:17:26;18.50;99.90
947;DHT22;460;48.734;9.152;2023-09-18T03:19:53;18.40;99.90
947;DHT22;460;48.734;9.152;2023-09-18T03:22:21;18.50;99.90
947;DHT22;460;48.734;9.152;2023-09-18T03:24:48;18.30;99.90
947;DHT22;460;48.734;9.152;2023-09-18T03:27:15;18.30;99.90
947;DHT22;460;48.734;9.152;2023-09-18T03:29:42;18.30;99.90
947;DHT22;460;48.734;9.152;2023-09-18T03:32:08;18.10;99.90
947;DHT22;460;48.734;9.152;2023-09-18T03:34:38;18.00;99.90
947;DHT22;460;48.734;9.152;2023-09-18T03:37:04;18.00;99.90
947;DHT22;460;48.734;9.152;2023-09-18T03:39:33;18.00;99.90
947;DHT22;460;48.734;9.152;2023-09-18T03:42:00;18.00;99.90
947;DHT22;460;48.734;9.152;2023-09-18T03:44:26;18.00;99.90
947;DHT22;460;48.734;9.152;2023-09-18T03:46:53;18.00;99.90
947;DHT22;460;48.734;9.152;2023-09-18T03:49:20;17.90;99.90
947;DHT22;460;48.734;9.152;2023-09-18T03:51:47;17.90;99.90
947;DHT22;460;48.734;9.152;2023-09-18T03:54:14;17.90;99.90
947;DHT22;460;48.734;9.152;2023-09-18T03:56:42;18.10;99.90
947;DHT22;460;48.734;9.152;2023-09-18T03:59:09;18.20;99.90
947;DHT22;460;48.734;9.152;2023-09-18T04:01:35;18.40;99.90
947;DHT22;460;48.734;9.152;2023-09-18T04:04:02;18.50;99.90
947;DHT22;460;48.734;9.152;2023-09-18T04:06:36;18.50;99.90
947;DHT22;460;48.734;9.152;2023-09-18T04:09:03;18.60;99.90
947;DHT22;460;48.734;9.152;2023-09-18T04:11:30;18.60;99.90
947;DHT22;460;48.734;9.152;2023-09-18T04:13:59;18.40;99.90
947;DHT22;460;48.734;9.152;2023-09-18T04:16:27;18.50;99.90
947;DHT22;460;48.734;9.152;2023-09-18T04:18:54;18.40;99.90
947;DHT22;460;48.734;9.152;2023-09-18T04:21:20;18.50;99.90
947;DHT22;460;48.734;9.152;2023-09-18T04:23:48;18.50;99.90
947;DHT22;460;48.734;9.152;2023-09-18T04:26:24;18.60;99.90
947;DHT22;460;48.734;9.152;2023-09-18T04:29:11;18.60;99.90
947;DHT22;460;48.734;9.152;2023-09-18T04:31:39;18.50;99.90
947;DHT22;460;48.734;9.152;2023-09-18T04:34:06;18.60;99.90
947;DHT22;460;48.734;9.152;2023-09-18T04:36:33;18.60;99.90
947;DHT22;460;48.734;9.152;2023-09-18T04:39:02;18.60;99.90
947;DHT22;460;48.734;9.152;2023-09-18T04:41:29;18.60;99.90
947;DHT22;460;48.734;9.152;2023-09-18T04:43:56;18.60;99.90
947;DHT22;460;48.734;9.152;2023-09-18T04:46:26;18.50;99.90
947;DHT22;460;48.734;9.152;2023-09-18T04:48:53;18.50;99.90
947;DHT22;460;48.734;9.152;2023-09-18T04:51:25;18.60;99.90
947;DHT22;460;48.734;9.152;2023-09-18T04:57:16;18.40;99.90
947;DHT22;460;48.734;9.152;2023-09-18T04:59:42;18.50;99.90
947;DHT22;460;48.734;9.152;2023-09-18T05:02:10;18.50;99.90
947;DHT22;460;48.734;9.152;2023-09-18T05:04:37;18.40;99.90
947;DHT22;460;48.734;9.152;2023-09-18T05:07:04;18.40;99.90
947;DHT22;460;48.734;9.152;2023-09-18T05:09:31;18.50;99.90
947;DHT22;460;48.734;9.152;2023-09-18T05:11:58;18.60;99.90
947;DHT22;460;48.734;9.152;2023-09-18T05:14:24;18.80;99.90
947;DHT22;460;48.734;9.152;2023-09-18T05:16:51;18.80;99.90
947;DHT22;460;48.734;9.152;2023-09-18T05:19:19;18.90;99.90
947;DHT22;460;48.734;9.152;2023-09-18T05:21:47;18.90;99.90
947;DHT22;460;48.734;9.152;2023-09-18T05:24:13;18.90;99.90
947;DHT22;460;48.734;9.152;2023-09-18T05:26:40;18.80;99.90
947;DHT22;460;48.734;9.152;2023-09-18T05:29:07;18.80;99.90
947;DHT22;460;48.734;9.152;2023-09-18T05:31:35;18.80;99.90
947;DHT22;460;48.734;9.152;2023-09-18T05:34:02;18.80;99.90
947;DHT22;460;48.734;9.152;2023-09-18T05:36:34;18.90;99.90
947;DHT22;460;48.734;9.152;2023-09-18T05:39:01;18.90;99.90
947;DHT22;460;48.734;9.152;2023-09-18T05:41:35;18.80;99.90
947;DHT22;460;48.734;9.152;2023-09-18T05:44:05;18.90;99.90
947;DHT22;460;48.734;9.152;2023-09-18T05:46:36;18.90;99.90
947;DHT22;460;48.734;9.152;2023-09-18T05:49:03;18.90;99.90
947;DHT22;460;48.734;9.152;2023-09-18T05:51:31;18.90;99.90
947;DHT22;460;48.734;9.152;2023-09-18T05:53:59;18.90;99.90
947;DHT22;460;48.734;9.152;2023-09-18T05:56:25;19.00;99.90
947;DHT22;460;48.734;9.152;2023-09-18T05:58:52;19.00;99.90
947;DHT22;460;48.734;9.152;2023-09-18T06:01:20;19.00;99.90
947;DHT22;460;48.734;9.152;2023-09-18T06:03:47;19.00;99.90
947;DHT22;460;48.734;9.152;2023-09-18T06:06:14;19.10;99.90
947;DHT22;460;48.734;9.152;2023-09-18T06:08:42;19.00;99.90
947;DHT22;460;48.734;9.152;2023-09-18T06:11:09;19.00;99.90
947;DHT22;460;48.734;9.152;2023-09-18T06:13:36;19.00;99.90
947;DHT22;460;48.734;9.152;2023-09-18T06:16:05;19.00;99.90
947;DHT22;460;48.734;9.152;2023-09-18T06:18:33;19.00;99.90
947;DHT22;460;48.734;9.152;2023-09-18T06:21:01;18.90;99.90
947;DHT22;460;48.734;9.152;2023-09-18T06:23:28;19.00;99.90
947;DHT22;460;48.734;9.152;2023-09-18T06:25:59;18.90;99.90
947;DHT22;460;48.734;9.152;2023-09-18T06:28:30;19.00;99.90
947;DHT22;460;48.734;9.152;2023-09-18T06:31:02;18.90;99.90
947;DHT22;460;48.734;9.152;2023-09-18T06:33:29;18.90;99.90
947;DHT22;460;48.734;9.152;2023-09-18T06:36:00;18.80;99.90
947;DHT22;460;48.734;9.152;2023-09-18T06:38:36;18.80;99.90
947;DHT22;460;48.734;9.152;2023-09-18T06:41:13;18.70;99.90
947;DHT22;460;48.734;9.152;2023-09-18T06:43:46;18.80;99.90
947;DHT22;460;48.734;9.152;2023-09-18T06:46:13;18.80;99.90
947;DHT22;460;48.734;9.152;2023-09-18T06:48:41;18.80;99.90
947;DHT22;460;48.734;9.152;2023-09-18T06:51:11;18.80;99.90
947;DHT22;460;48.734;9.152;2023-09-18T06:53:38;18.90;99.90
947;DHT22;460;48.734;9.152;2023-09-18T06:56:07;18.80;99.90
947;DHT22;460;48.734;9.152;2023-09-18T06:58:37;18.80;99.90
947;DHT22;460;48.734;9.152;2023-09-18T07:01:04;18.80;99.90
947;DHT22;460;48.734;9.152;2023-09-18T07:03:33;18.80;99.90
947;DHT22;460;48.734;9.152;2023-09-18T07:06:02;18.80;99.90
947;DHT22;460;48.734;9.152;2023-09-18T07:08:30;18.90;99.90
947;DHT22;460;48.734;9.152;2023-09-18T07:10:58;18.90;99.90
947;DHT22;460;48.734;9.152;2023-09-18T07:13:27;18.90;99.90
947;DHT22;460;48.734;9.152;2023-09-18T07:15:55;18.90;99.90
947;DHT22;460;48.734;9.152;2023-09-18T07:18:26;18.90;99.90
947;DHT22;460;48.734;9.152;2023-09-18T07:20:53;19.00;99.90
947;DHT22;460;48.734;9.152;2023-09-18T07:23:20;19.00;99.90
947;DHT22;460;48.734;9.152;2023-09-18T07:25:47;19.10;99.90
947;DHT22;460;48.734;9.152;2023-09-18T07:28:15;19.10;99.90
947;DHT22;460;48.734;9.152;2023-09-18T07:30:44;19.20;99.90
947;DHT22;460;48.734;9.152;2023-09-18T07:33:13;19.20;99.90
947;DHT22;460;48.734;9.152;2023-09-18T07:35:45;19.20;99.90
947;DHT22;460;48.734;9.152;2023-09-18T07:38:13;19.20;99.90
947;DHT22;460;48.734;9.152;2023-09-18T07:40:41;19.20;99.90
947;DHT22;460;48.734;9.152;2023-09-18T07:43:09;19.20;99.90
947;DHT22;460;48.734;9.152;2023-09-18T07:45:38;19.30;99.90
947;DHT22;460;48.734;9.152;2023-09-18T07:48:05;19.30;99.90
947;DHT22;460;48.734;9.152;2023-09-18T07:50:34;19.40;99.90
947;DHT22;460;48.734;9.152;2023-09-18T07:53:02;19.40;99.90
947;DHT22;460;48.734;9.152;2023-09-18T07:55:29;19.40;99.90
947;DHT22;460;48.734;9.152;2023-09-18T07:57:57;19.40;99.90
947;DHT22;460;48.734;9.152;2023-09-18T08:00:24;19.50;99.90
947;DHT22;460;48.734;9.152;2023-09-18T08:02:53;19.50;99.90
947;DHT22;460;48.734;9.152;2023-09-18T08:05:24;19.60;99.90
947;DHT22;460;48.734;9.152;2023-09-18T08:07:54;19.60;99.90
947;DHT22;460;48.734;9.152;2023-09-18T08:10:22;19.60;99.90
947;DHT22;460;48.734;9.152;2023-09-18T08:12:49;19.60;99.90
947;DHT22;460;48.734;9.152;2023-09-18T08:15:18;19.50;99.90
947;DHT22;460;48.734;9.152;2023-09-18T08:17:45;19.60;99.90
947;DHT22;460;48.734;9.152;2023-09-18T08:20:12;19.60;99.90
947;DHT22;460;48.734;9.152;2023-09-18T08:22:41;19.60;99.90
947;DHT22;460;48.734;9.152;2023-09-18T08:25:10;19.60;99.90
947;DHT22;460;48.734;9.152;2023-09-18T08:27:38;19.60;99.90
947;DHT22;460;48.734;9.152;2023-09-18T08:30:08;19.50;99.90
947;DHT22;460;48.734;9.152;2023-09-18T08:32:36;19.50;99.90
947;DHT22;460;48.734;9.152;2023-09-18T08:35:03;19.50;99.90
947;DHT22;460;48.734;9.152;2023-09-18T08:37:30;19.40;99.90
947;DHT22;460;48.734;9.152;2023-09-18T08:39:57;19.20;99.90
947;DHT22;460;48.734;9.152;2023-09-18T08:42:27;19.10;99.90
947;DHT22;460;48.734;9.152;2023-09-18T08:45:22;19.00;99.90
947;DHT22;460;48.734;9.152;2023-09-18T08:47:51;19.00;99.90
947;DHT22;460;48.734;9.152;2023-09-18T08:50:20;18.90;99.90
947;DHT22;460;48.734;9.152;2023-09-18T08:52:47;18.90;99.90
947;DHT22;460;48.734;9.152;2023-09-18T08:55:14;18.80;99.90
947;DHT22;460;48.734;9.152;2023-09-18T08:57:43;18.70;99.90
947;DHT22;460;48.734;9.152;2023-09-18T09:00:12;18.70;99.90
947;DHT22;460;48.734;9.152;2023-09-18T09:02:43;18.60;99.90
947;DHT22;460;48.734;9.152;2023-09-18T09:05:10;18.60;99.90
947;DHT22;460;48.734;9.152;2023-09-18T09:07:38;18.60;99.90
947;DHT22;460;48.734;9.152;2023-09-18T09:10:05;18.60;99.90
947;DHT22;460;48.734;9.152;2023-09-18T09:12:53;18.60;99.90
947;DHT22;460;48.734;9.152;2023-09-18T09:15:21;18.50;99.90
947;DHT22;460;48.734;9.152;2023-09-18T09:17:49;18.40;99.90
947;DHT22;460;48.734;9.152;2023-09-18T09:20:16;18.50;99.90
947;DHT22;460;48.734;9.152;2023-09-18T09:22:45;18.50;99.90
947;DHT22;460;48.734;9.152;2023-09-18T09:25:30;18.60;99.90
947;DHT22;460;48.734;9.152;2023-09-18T09:28:01;18.80;99.90
947;DHT22;460;48.734;9.152;2023-09-18T09:30:29;18.60;99.90
947;DHT22;460;48.734;9.152;2023-09-18T09:32:57;18.50;99.90
947;DHT22;460;48.734;9.152;2023-09-18T09:35:25;18.60;99.90
947;DHT22;460;48.734;9.152;2023-09-18T09:37:57;18.50;99.90
947;DHT22;460;48.734;9.152;2023-09-18T09:40:25;18.40;99.90
947;DHT22;460;48.734;9.152;2023-09-18T09:42:53;18.50;99.90
947;DHT22;460;48.734;9.152;2023-09-18T09:45:27;18.60;99.90
947;DHT22;460;48.734;9.152;2023-09-18T09:47:56;18.70;99.90
947;DHT22;460;48.734;9.152;2023-09-18T09:50:23;18.80;99.90
947;DHT22;460;48.734;9.152;2023-09-18T09:52:53;18.80;99.90
947;DHT22;460;48.734;9.152;2023-09-18T09:55:22;18.80;99.90
947;DHT22;460;48.734;9.152;2023-09-18T09:57:51;18.80;99.90
947;DHT22;460;48.734;9.152;2023-09-18T10:00:20;18.90;99.90
947;DHT22;460;48.734;9.152;2023-09-18T10:02:56;18.90;99.90
947;DHT22;460;48.734;9.152;2023-09-18T10:05:26;19.10;99.90
947;DHT22;460;48.734;9.152;2023-09-18T10:07:57;19.20;99.90
947;DHT22;460;48.734;9.152;2023-09-18T10:10:29;19.30;99.90
947;DHT22;460;48.734;9.152;2023-09-18T10:13:00;19.40;99.90
947;DHT22;460;48.734;9.152;2023-09-18T10:15:28;19.40;99.90
947;DHT22;460;48.734;9.152;2023-09-18T10:18:02;19.30;99.90
947;DHT22;460;48.734;9.152;2023-09-18T10:20:30;19.40;99.90
947;DHT22;460;48.734;9.152;2023-09-18T10:23:00;19.40;99.90
947;DHT22;460;48.734;9.152;2023-09-18T10:25:32;19.10;99.90
947;DHT22;460;48.734;9.152;2023-09-18T10:28:02;19.00;99.90
947;DHT22;460;48.734;9.152;2023-09-18T10:30:32;19.10;99.90
947;DHT22;460;48.734;9.152;2023-09-18T10:33:05;19.10;99.90
947;DHT22;460;48.734;9.152;2023-09-18T10:35:34;19.10;99.90
947;DHT22;460;48.734;9.152;2023-09-18T10:38:05;19.10;99.90
947;DHT22;460;48.734;9.152;2023-09-18T10:40:34;19.10;99.90
947;DHT22;460;48.734;9.152;2023-09-18T10:43:04;19.00;99.90
947;DHT22;460;48.734;9.152;2023-09-18T10:45:36;19.00;99.90
947;DHT22;460;48.734;9.152;2023-09-18T10:48:07;18.90;99.90
947;DHT22;460;48.734;9.152;2023-09-18T10:50:36;18.90;99.90
947;DHT22;460;48.734;9.152;2023-09-18T10:53:08;19.00;99.90
947;DHT22;460;48.734;9.152;2023-09-18T10:55:39;18.90;99.90
947;DHT22;460;48.734;9.152;2023-09-18T10:58:08;18.90;99.90
947;DHT22;460;48.734;9.152;2023-09-18T11:00:37;18.80;99.90
947;DHT22;460;48.734;9.152;2023-09-18T11:03:12;18.90;99.90
947;DHT22;460;48.734;9.152;2023-09-18T11:05:44;18.90;99.90
947;DHT22;460;48.734;9.152;2023-09-18T11:08:31;19.00;99.90
947;DHT22;460;48.734;9.152;2023-09-18T11:11:05;18.90;99.90
947;DHT22;460;48.734;9.152;2023-09-18T11:13:40;18.90;99.90
947;DHT22;460;48.734;9.152;2023-09-18T11:16:33;18.90;99.90
947;DHT22;460;48.734;9.152;2023-09-18T11:19:09;18.80;99.90
947;DHT22;460;48.734;9.152;2023-09-18T11:21:40;18.70;99.90
947;DHT22;460;48.734;9.152;2023-09-18T11:24:16;18.60;99.90
947;DHT22;460;48.734;9.152;2023-09-18T11:26:48;18.80;99.90
947;DHT22;460;48.734;9.152;2023-09-18T11:29:17;18.80;99.90
947;DHT22;460;48.734;9.152;2023-09-18T11:31:50;18.90;99.90
947;DHT22;460;48.734;9.152;2023-09-18T11:34:23;18.90;99.90
947;DHT22;460;48.734;9.152;2023-09-18T11:36:53;18.90;99.90
947;DHT22;460;48.734;9.152;2023-09-18T11:39:37;18.80;99.90
947;DHT22;460;48.734;9.152;2023-09-18T11:42:10;18.90;99.90
947;DHT22;460;48.734;9.152;2023-09-18T11:44:38;18.80;99.90
947;DHT22;460;48.734;9.152;2023-09-18T11:47:13;18.80;99.90
947;DHT22;460;48.734;9.152;2023-09-18T11:49:49;19.00;99.90
947;DHT22;460;48.734;9.152;2023-09-18T11:52:21;19.00;99.90
947;DHT22;460;48.734;9.152;2023-09-18T11:54:49;19.20;99.90
947;DHT22;460;48.734;9.152;2023-09-18T11:57:17;19.10;99.90
947;DHT22;460;48.734;9.152;2023-09-18T11:59:46;19.10;99.90
947;DHT22;460;48.734;9.152;2023-09-18T12:02:25;19.00;99.90
947;DHT22;460;48.734;9.152;2023-09-18T12:04:55;19.10;99.90
947;DHT22;460;48.734;9.152;2023-09-18T12:07:23;19.00;99.90
947;DHT22;460;48.734;9.152;2023-09-18T12:09:51;19.10;99.90
947;DHT22;460;48.734;9.152;2023-09-18T12:12:20;19.20;99.90
947;DHT22;460;48.734;9.152;2023-09-18T12:14:47;19.20;99.90
947;DHT22;460;48.734;9.152;2023-09-18T12:17:16;19.30;99.90
947;DHT22;460;48.734;9.152;2023-09-18T12:19:54;19.40;99.90
947;DHT22;460;48.734;9.152;2023-09-18T12:22:25;19.40;99.90
947;DHT22;460;48.734;9.152;2023-09-18T12:24:53;19.40;99.90
947;DHT22;460;48.734;9.152;2023-09-18T12:27:20;19.40;99.90
947;DHT22;460;48.734;9.152;2023-09-18T12:29:47;19.40;99.90
947;DHT22;460;48.734;9.152;2023-09-18T12:32:15;19.40;99.90
947;DHT22;460;48.734;9.152;2023-09-18T12:34:43;19.50;99.90
947;DHT22;460;48.734;9.152;2023-09-18T12:37:12;19.50;99.90
947;DHT22;460;48.734;9.152;2023-09-18T12:39:39;19.50;99.90
947;DHT22;460;48.734;9.152;2023-09-18T12:42:06;19.80;99.90
947;DHT22;460;48.734;9.152;2023-09-18T12:44:33;19.80;99.90
947;DHT22;460;48.734;9.152;2023-09-18T12:47:01;20.00;99.90
947;DHT22;460;48.734;9.152;2023-09-18T12:49:30;20.10;99.90
947;DHT22;460;48.734;9.152;2023-09-18T12:51:58;20.20;99.90
947;DHT22;460;48.734;9.152;2023-09-18T12:54:40;20.40;99.90
947;DHT22;460;48.734;9.152;2023-09-18T12:57:09;20.70;99.90
947;DHT22;460;48.734;9.152;2023-09-18T12:59:37;20.80;99.90
947;DHT22;460;48.734;9.152;2023-09-18T13:02:04;20.70;99.90
947;DHT22;460;48.734;9.152;2023-09-18T13:04:36;20.70;99.90
947;DHT22;460;48.734;9.152;2023-09-18T13:07:06;20.60;99.90
947;DHT22;460;48.734;9.152;2023-09-18T13:09:32;20.60;99.90
947;DHT22;460;48.734;9.152;2023-09-18T13:12:06;20.80;99.90
947;DHT22;460;48.734;9.152;2023-09-18T13:14:57;20.80;99.90
947;DHT22;460;48.734;9.152;2023-09-18T13:17:24;20.80;99.90
947;DHT22;460;48.734;9.152;2023-09-18T13:19:55;20.90;99.90
947;DHT22;460;48.734;9.152;2023-09-18T13:22:23;21.10;99.90
947;DHT22;460;48.734;9.152;2023-09-18T13:24:55;21.00;99.90
947;DHT22;460;48.734;9.152;2023-09-18T13:27:24;21.10;99.90
947;DHT22;460;48.734;9.152;2023-09-18T13:29:52;20.90;99.90
947;DHT22;460;48.734;9.152;2023-09-18T13:32:20;20.80;99.90
947;DHT22;460;48.734;9.152;2023-09-18T13:34:47;21.00;99.90
947;DHT22;460;48.734;9.152;2023-09-18T13:37:14;21.30;99.90
947;DHT22;460;48.734;9.152;2023-09-18T13:39:42;21.40;99.90
947;DHT22;460;48.734;9.152;2023-09-18T13:42:28;21.50;99.90
947;DHT22;460;48.734;9.152;2023-09-18T13:44:58;21.60;99.90
947;DHT22;460;48.734;9.152;2023-09-18T13:47:26;21.50;98.60
947;DHT22;460;48.734;9.152;2023-09-18T13:49:53;21.40;98.90
947;DHT22;460;48.734;9.152;2023-09-18T13:52:22;21.40;98.80
947;DHT22;460;48.734;9.152;2023-09-18T13:54:50;21.30;98.90
947;DHT22;460;48.734;9.152;2023-09-18T13:57:17;21.30;99.00
947;DHT22;460;48.734;9.152;2023-09-18T13:59:47;21.20;99.20
947;DHT22;460;48.734;9.152;2023-09-18T14:02:15;21.30;99.00
947;DHT22;460;48.734;9.152;2023-09-18T14:04:42;21.60;98.70
947;DHT22;460;48.734;9.152;2023-09-18T14:07:10;21.60;97.60
947;DHT22;460;48.734;9.152;2023-09-18T14:09:37;21.60;98.30
947;DHT22;460;48.734;9.152;2023-09-18T14:12:05;21.50;98.10
947;DHT22;460;48.734;9.152;2023-09-18T14:14:32;21.50;98.90
947;DHT22;460;48.734;9.152;2023-09-18T14:17:01;21.50;98.90
947;DHT22;460;48.734;9.152;2023-09-18T14:19:31;21.50;98.10
947;DHT22;460;48.734;9.152;2023-09-18T14:21:58;21.60;98.10
947;DHT22;460;48.734;9.152;2023-09-18T14:24:29;21.70;98.30
947;DHT22;460;48.734;9.152;2023-09-18T14:26:56;21.80;98.20
947;DHT22;460;48.734;9.152;2023-09-18T14:29:22;21.70;97.70
947;DHT22;460;48.734;9.152;2023-09-18T14:31:49;21.80;98.30
947;DHT22;460;48.734;9.152;2023-09-18T14:34:17;21.80;98.20
947;DHT22;460;48.734;9.152;2023-09-18T14:36:44;21.80;97.20
947;DHT22;460;48.734;9.152;2023-09-18T14:39:11;21.80;97.40
947;DHT22;460;48.734;9.152;2023-09-18T14:41:39;21.80;96.30
947;DHT22;460;48.734;9.152;2023-09-18T14:44:08;21.70;96.10
947;DHT22;460;48.734;9.152;2023-09-18T14:46:35;21.60;96.60
947;DHT22;460;48.734;9.152;2023-09-18T14:49:03;21.70;95.90
947;DHT22;460;48.734;9.152;2023-09-18T14:51:32;21.60;96.60
947;DHT22;460;48.734;9.152;2023-09-18T14:53:59;21.80;97.20
947;DHT22;460;48.734;9.152;2023-09-18T14:56:27;21.80;96.50
947;DHT22;460;48.734;9.152;2023-09-18T14:58:54;21.80;96.60
947;DHT22;460;48.734;9.152;2023-09-18T15:01:22;21.80;95.90
947;DHT22;460;48.734;9.152;2023-09-18T15:03:49;21.80;97.00
947;DHT22;460;48.734;9.152;2023-09-18T15:06:16;21.90;96.70
947;DHT22;460;48.734;9.152;2023-09-18T15:08:44;21.80;96.00
947;DHT22;460;48.734;9.152;2023-09-18T15:11:11;21.60;96.60
947;DHT22;460;48.734;9.152;2023-09-18T15:13:38;21.40;96.50
947;DHT22;460;48.734;9.152;2023-09-18T15:16:05;21.50;96.00
947;DHT22;460;48.734;9.152;2023-09-18T15:18:32;21.40;96.10
947;DHT22;460;48.734;9.152;2023-09-18T15:20:59;21.40;96.00
947;DHT22;460;48.734;9.152;2023-09-18T15:23:26;21.30;96.10
947;DHT22;460;48.734;9.152;2023-09-18T15:25:54;21.20;95.90
947;DHT22;460;48.734;9.152;2023-09-18T15:28:21;21.10;95.70
947;DHT22;460;48.734;9.152;2023-09-18T15:30:50;21.10;96.50
947;DHT22;460;48.734;9.152;2023-09-18T15:33:17;21.20;96.30
947;DHT22;460;48.734;9.152;2023-09-18T15:35:44;21.30;96.00
947;DHT22;460;48.734;9.152;2023-09-18T15:38:11;21.50;96.20
947;DHT22;460;48.734;9.152;2023-09-18T15:40:38;21.50;95.90
947;DHT22;460;48.734;9.152;2023-09-18T15:43:06;21.50;95.80
947;DHT22;460;48.734;9.152;2023-09-18T15:45:33;21.40;96.00
947;DHT22;460;48.734;9.152;2023-09-18T15:48:00;21.40;96.20
947;DHT22;460;48.734;9.152;2023-09-18T15:50:27;21.50;95.90
947;DHT22;460;48.734;9.152;2023-09-18T15:52:55;21.40;95.60
947;DHT22;460;48.734;9.152;2023-09-18T15:55:22;21.50;95.40
947;DHT22;460;48.734;9.152;2023-09-18T15:57:49;21.40;95.50
947;DHT22;460;48.734;9.152;2023-09-18T16:00:18;21.20;95.30
947;DHT22;460;48.734;9.152;2023-09-18T16:02:45;21.00;95.60
947;DHT22;460;48.734;9.152;2023-09-18T16:05:14;21.00;95.50
947;DHT22;460;48.734;9.152;2023-09-18T16:07:42;21.00;95.70
947;DHT22;460;48.734;9.152;2023-09-18T16:10:10;20.90;96.40
947;DHT22;460;48.734;9.152;2023-09-18T16:12:37;21.00;96.00
947;DHT22;460;48.734;9.152;2023-09-18T16:15:05;21.00;95.80
947;DHT22;460;48.734;9.152;2023-09-18T16:17:34;21.00;95.90
947;DHT22;460;48.734;9.152;2023-09-18T16:20:01;20.90;95.50
947;DHT22;460;48.734;9.152;2023-09-18T16:22:30;20.90;95.80
947;DHT22;460;48.734;9.152;2023-09-18T16:24:58;20.90;95.90
947;DHT22;460;48.734;9.152;2023-09-18T16:27:25;20.80;96.30
947;DHT22;460;48.734;9.152;2023-09-18T16:29:52;20.70;96.20
947;DHT22;460;48.734;9.152;2023-09-18T16:32:21;20.60;96.40
947;DHT22;460;48.734;9.152;2023-09-18T16:34:49;20.50;96.40
947;DHT22;460;48.734;9.152;2023-09-18T16:37:16;20.40;96.80
947;DHT22;460;48.734;9.152;2023-09-18T16:39:42;20.30;97.00
947;DHT22;460;48.734;9.152;2023-09-18T16:42:09;20.30;97.10
947;DHT22;460;48.734;9.152;2023-09-18T16:44:36;20.30;97.30
947;DHT22;460;48.734;9.152;2023-09-18T16:47:05;20.30;97.30
947;DHT22;460;48.734;9.152;2023-09-18T16:49:32;20.20;97.30